9°C Temp
3°C Dewpoint
66% Humidity
Temperature
19 KM/H
12 MPH
10 KTS
130°
South East

Wind Speed
Clear
Conditions
Pressure 1018.92 (hPa) - 30.09 (in)
Visibility 9.9 (mi) - 16.0 (km)

Current Conditions
KSJC
Location 9(km)
Metar :KSJC 040853Z AUTO 13010KT 10SM CLR 09/03 A3009 RMK AO2 SLP190 T00940033 51023
Thu 4th March 09:53 am

Airport
  Metar Aviation API Data Provided by https://www.checkwx.com/ PHP scripts by weather34.com ©2021